sensor_id;sensor_type;location;lat;lon;timestamp;temperature;humidity
7048;DHT22;3565;53.254;10.352;2022-08-07T00:02:02;12.10;99.90
7048;DHT22;3565;53.254;10.352;2022-08-07T00:04:31;12.10;99.90
7048;DHT22;3565;53.254;10.352;2022-08-07T00:07:00;12.10;99.90
7048;DHT22;3565;53.254;10.352;2022-08-07T00:09:29;12.10;99.90
7048;DHT22;3565;53.254;10.352;2022-08-07T00:11:58;12.10;99.90
7048;DHT22;3565;53.254;10.352;2022-08-07T00:14:27;12.10;99.90
7048;DHT22;3565;53.254;10.352;2022-08-07T00:16:57;12.10;99.90
7048;DHT22;3565;53.254;10.352;2022-08-07T00:19:29;12.00;99.90
7048;DHT22;3565;53.254;10.352;2022-08-07T00:21:58;12.00;99.90
7048;DHT22;3565;53.254;10.352;2022-08-07T00:24:28;12.00;99.90
7048;DHT22;3565;53.254;10.352;2022-08-07T00:26:56;11.80;99.90
7048;DHT22;3565;53.254;10.352;2022-08-07T00:29:25;12.00;99.90
7048;DHT22;3565;53.254;10.352;2022-08-07T00:31:56;11.90;99.90
7048;DHT22;3565;53.254;10.352;2022-08-07T00:34:26;11.80;99.90
7048;DHT22;3565;53.254;10.352;2022-08-07T00:36:55;11.80;99.90
7048;DHT22;3565;53.254;10.352;2022-08-07T00:41:54;11.70;99.90
7048;DHT22;3565;53.254;10.352;2022-08-07T00:44:24;11.80;99.90
7048;DHT22;3565;53.254;10.352;2022-08-07T00:46:53;11.70;99.90
7048;DHT22;3565;53.254;10.352;2022-08-07T00:49:22;11.70;99.90
7048;DHT22;3565;53.254;10.352;2022-08-07T00:51:51;11.70;99.90
7048;DHT22;3565;53.254;10.352;2022-08-07T00:54:20;11.50;99.90
7048;DHT22;3565;53.254;10.352;2022-08-07T00:56:50;11.60;99.90
7048;DHT22;3565;53.254;10.352;2022-08-07T00:59:19;11.60;99.90
7048;DHT22;3565;53.254;10.352;2022-08-07T01:01:48;11.50;99.90
7048;DHT22;3565;53.254;10.352;2022-08-07T01:04:18;11.60;99.90
7048;DHT22;3565;53.254;10.352;2022-08-07T01:06:47;11.50;99.90
7048;DHT22;3565;53.254;10.352;2022-08-07T01:09:16;11.40;99.90
7048;DHT22;3565;53.254;10.352;2022-08-07T01:11:45;11.40;99.90
7048;DHT22;3565;53.254;10.352;2022-08-07T01:14:14;11.20;99.90
7048;DHT22;3565;53.254;10.352;2022-08-07T01:16:43;11.40;99.90
7048;DHT22;3565;53.254;10.352;2022-08-07T01:19:13;11.00;99.90
7048;DHT22;3565;53.254;10.352;2022-08-07T01:21:42;11.40;99.90
7048;DHT22;3565;53.254;10.352;2022-08-07T01:24:12;11.30;99.90
7048;DHT22;3565;53.254;10.352;2022-08-07T01:29:10;11.30;99.90
7048;DHT22;3565;53.254;10.352;2022-08-07T01:31:39;11.20;99.90
7048;DHT22;3565;53.254;10.352;2022-08-07T01:34:08;11.20;99.90
7048;DHT22;3565;53.254;10.352;2022-08-07T01:39:09;11.10;99.90
7048;DHT22;3565;53.254;10.352;2022-08-07T01:41:38;11.00;99.90
7048;DHT22;3565;53.254;10.352;2022-08-07T01:44:09;11.10;99.90
7048;DHT22;3565;53.254;10.352;2022-08-07T01:46:39;11.00;99.90
7048;DHT22;3565;53.254;10.352;2022-08-07T01:49:10;11.00;99.90
7048;DHT22;3565;53.254;10.352;2022-08-07T01:51:41;11.00;99.90
7048;DHT22;3565;53.254;10.352;2022-08-07T01:54:12;10.90;99.90
7048;DHT22;3565;53.254;10.352;2022-08-07T01:56:46;10.90;99.90
7048;DHT22;3565;53.254;10.352;2022-08-07T01:59:19;11.00;99.90
7048;DHT22;3565;53.254;10.352;2022-08-07T02:01:52;10.90;99.90
7048;DHT22;3565;53.254;10.352;2022-08-07T02:04:25;10.90;99.90
7048;DHT22;3565;53.254;10.352;2022-08-07T02:09:24;10.80;99.90
7048;DHT22;3565;53.254;10.352;2022-08-07T02:11:56;10.80;99.90
7048;DHT22;3565;53.254;10.352;2022-08-07T02:14:26;10.80;99.90
7048;DHT22;3565;53.254;10.352;2022-08-07T02:16:56;10.80;99.90
7048;DHT22;3565;53.254;10.352;2022-08-07T02:19:25;10.70;99.90
7048;DHT22;3565;53.254;10.352;2022-08-07T02:21:55;10.70;99.90
7048;DHT22;3565;53.254;10.352;2022-08-07T02:24:27;10.70;99.90
7048;DHT22;3565;53.254;10.352;2022-08-07T02:26:58;10.70;99.90
7048;DHT22;3565;53.254;10.352;2022-08-07T02:31:57;10.70;99.90
7048;DHT22;3565;53.254;10.352;2022-08-07T02:34:27;10.70;99.90
7048;DHT22;3565;53.254;10.352;2022-08-07T02:36:56;10.70;99.90
7048;DHT22;3565;53.254;10.352;2022-08-07T02:39:26;10.60;99.90
7048;DHT22;3565;53.254;10.352;2022-08-07T02:41:56;10.60;99.90
7048;DHT22;3565;53.254;10.352;2022-08-07T02:44:27;10.60;99.90
7048;DHT22;3565;53.254;10.352;2022-08-07T02:46:59;10.70;99.90
7048;DHT22;3565;53.254;10.352;2022-08-07T02:49:29;10.50;99.90
7048;DHT22;3565;53.254;10.352;2022-08-07T02:51:58;10.50;99.90
7048;DHT22;3565;53.254;10.352;2022-08-07T02:54:30;10.50;99.90
7048;DHT22;3565;53.254;10.352;2022-08-07T02:57:01;10.40;99.90
7048;DHT22;3565;53.254;10.352;2022-08-07T02:59:31;10.40;99.90
7048;DHT22;3565;53.254;10.352;2022-08-07T03:02:01;10.40;99.90
7048;DHT22;3565;53.254;10.352;2022-08-07T03:04:31;10.40;99.90
7048;DHT22;3565;53.254;10.352;2022-08-07T03:07:00;10.30;99.90
7048;DHT22;3565;53.254;10.352;2022-08-07T03:09:30;10.30;99.90
7048;DHT22;3565;53.254;10.352;2022-08-07T03:11:59;10.30;99.90
7048;DHT22;3565;53.254;10.352;2022-08-07T03:14:33;10.20;99.90
7048;DHT22;3565;53.254;10.352;2022-08-07T03:17:03;10.20;99.90
7048;DHT22;3565;53.254;10.352;2022-08-07T03:19:33;10.00;99.90
7048;DHT22;3565;53.254;10.352;2022-08-07T03:22:04;10.10;99.90
7048;DHT22;3565;53.254;10.352;2022-08-07T03:24:34;10.10;99.90
7048;DHT22;3565;53.254;10.352;2022-08-07T03:27:05;10.10;99.90
7048;DHT22;3565;53.254;10.352;2022-08-07T03:29:37;10.00;99.90
7048;DHT22;3565;53.254;10.352;2022-08-07T03:32:09;9.90;99.90
7048;DHT22;3565;53.254;10.352;2022-08-07T03:34:41;10.00;99.90
7048;DHT22;3565;53.254;10.352;2022-08-07T03:37:11;10.00;99.90
7048;DHT22;3565;53.254;10.352;2022-08-07T03:39:42;9.90;99.90
7048;DHT22;3565;53.254;10.352;2022-08-07T03:42:12;9.90;99.90
7048;DHT22;3565;53.254;10.352;2022-08-07T03:44:42;9.90;99.90
7048;DHT22;3565;53.254;10.352;2022-08-07T03:47:12;9.90;99.90
7048;DHT22;3565;53.254;10.352;2022-08-07T03:49:42;10.00;99.90
7048;DHT22;3565;53.254;10.352;2022-08-07T03:52:11;9.90;99.90
7048;DHT22;3565;53.254;10.352;2022-08-07T03:54:40;9.90;99.90
7048;DHT22;3565;53.254;10.352;2022-08-07T03:57:10;9.90;99.90
7048;DHT22;3565;53.254;10.352;2022-08-07T03:59:40;9.90;99.90
7048;DHT22;3565;53.254;10.352;2022-08-07T04:02:09;9.80;99.90
7048;DHT22;3565;53.254;10.352;2022-08-07T04:04:41;9.80;99.90
7048;DHT22;3565;53.254;10.352;2022-08-07T04:07:10;9.80;99.90
7048;DHT22;3565;53.254;10.352;2022-08-07T04:09:40;9.90;99.90
7048;DHT22;3565;53.254;10.352;2022-08-07T04:12:10;10.10;99.90
7048;DHT22;3565;53.254;10.352;2022-08-07T04:14:39;9.90;99.90
7048;DHT22;3565;53.254;10.352;2022-08-07T04:17:09;9.90;99.90
7048;DHT22;3565;53.254;10.352;2022-08-07T04:19:40;9.90;99.90
7048;DHT22;3565;53.254;10.352;2022-08-07T04:22:28;10.00;99.90
7048;DHT22;3565;53.254;10.352;2022-08-07T04:24:59;10.00;99.90
7048;DHT22;3565;53.254;10.352;2022-08-07T04:27:29;10.00;99.90
7048;DHT22;3565;53.254;10.352;2022-08-07T04:29:58;10.00;99.90
7048;DHT22;3565;53.254;10.352;2022-08-07T04:32:28;9.90;99.90
7048;DHT22;3565;53.254;10.352;2022-08-07T04:34:58;9.90;99.90
7048;DHT22;3565;53.254;10.352;2022-08-07T04:37:28;9.90;99.90
7048;DHT22;3565;53.254;10.352;2022-08-07T04:39:59;10.00;99.90
7048;DHT22;3565;53.254;10.352;2022-08-07T04:42:29;10.00;99.90
7048;DHT22;3565;53.254;10.352;2022-08-07T04:45:01;10.10;99.90
7048;DHT22;3565;53.254;10.352;2022-08-07T04:47:36;10.10;99.90
7048;DHT22;3565;53.254;10.352;2022-08-07T04:50:09;10.20;99.90
7048;DHT22;3565;53.254;10.352;2022-08-07T04:52:42;10.30;99.90
7048;DHT22;3565;53.254;10.352;2022-08-07T04:55:15;10.30;99.90
7048;DHT22;3565;53.254;10.352;2022-08-07T04:57:48;10.40;99.90
7048;DHT22;3565;53.254;10.352;2022-08-07T05:00:23;10.50;99.90
7048;DHT22;3565;53.254;10.352;2022-08-07T05:02:55;10.60;99.90
7048;DHT22;3565;53.254;10.352;2022-08-07T05:07:26;10.80;99.90
7048;DHT22;3565;53.254;10.352;2022-08-07T05:09:58;10.80;99.90
7048;DHT22;3565;53.254;10.352;2022-08-07T05:15:16;11.10;99.90
7048;DHT22;3565;53.254;10.352;2022-08-07T05:17:48;11.40;99.90
7048;DHT22;3565;53.254;10.352;2022-08-07T05:20:21;11.40;99.90
7048;DHT22;3565;53.254;10.352;2022-08-07T05:22:53;11.50;99.90
7048;DHT22;3565;53.254;10.352;2022-08-07T05:25:23;11.70;99.90
7048;DHT22;3565;53.254;10.352;2022-08-07T05:27:54;11.60;99.90
7048;DHT22;3565;53.254;10.352;2022-08-07T05:30:24;12.00;99.90
7048;DHT22;3565;53.254;10.352;2022-08-07T05:32:55;12.30;99.90
7048;DHT22;3565;53.254;10.352;2022-08-07T05:35:25;12.80;99.90
7048;DHT22;3565;53.254;10.352;2022-08-07T05:37:54;12.60;99.90
7048;DHT22;3565;53.254;10.352;2022-08-07T05:40:23;12.70;99.90
7048;DHT22;3565;53.254;10.352;2022-08-07T05:42:53;12.90;99.90
7048;DHT22;3565;53.254;10.352;2022-08-07T05:45:24;13.40;99.90
7048;DHT22;3565;53.254;10.352;2022-08-07T05:47:53;13.80;99.90
7048;DHT22;3565;53.254;10.352;2022-08-07T05:50:23;14.10;99.90
7048;DHT22;3565;53.254;10.352;2022-08-07T05:52:52;14.20;99.90
7048;DHT22;3565;53.254;10.352;2022-08-07T05:55:21;15.00;99.90
7048;DHT22;3565;53.254;10.352;2022-08-07T05:57:50;15.00;99.90
7048;DHT22;3565;53.254;10.352;2022-08-07T06:00:20;16.00;99.90
7048;DHT22;3565;53.254;10.352;2022-08-07T06:02:51;16.10;99.90
7048;DHT22;3565;53.254;10.352;2022-08-07T06:05:22;17.20;90.60
7048;DHT22;3565;53.254;10.352;2022-08-07T06:07:53;17.20;94.30
7048;DHT22;3565;53.254;10.352;2022-08-07T06:10:23;17.80;73.00
7048;DHT22;3565;53.254;10.352;2022-08-07T06:12:53;19.00;40.20
7048;DHT22;3565;53.254;10.352;2022-08-07T06:15:22;19.10;39.90
7048;DHT22;3565;53.254;10.352;2022-08-07T06:17:52;20.00;1.00
7048;DHT22;3565;53.254;10.352;2022-08-07T06:20:22;19.60;11.30
7048;DHT22;3565;53.254;10.352;2022-08-07T06:22:52;19.70;1.00
7048;DHT22;3565;53.254;10.352;2022-08-07T06:25:21;19.50;1.00
7048;DHT22;3565;53.254;10.352;2022-08-07T06:27:50;18.40;20.50
7048;DHT22;3565;53.254;10.352;2022-08-07T06:30:19;20.00;46.60
7048;DHT22;3565;53.254;10.352;2022-08-07T06:32:48;19.20;20.00
7048;DHT22;3565;53.254;10.352;2022-08-07T06:35:17;19.30;1.00
7048;DHT22;3565;53.254;10.352;2022-08-07T06:37:46;18.60;37.20
7048;DHT22;3565;53.254;10.352;2022-08-07T06:40:15;19.60;11.90
7048;DHT22;3565;53.254;10.352;2022-08-07T06:42:46;19.90;1.00
7048;DHT22;3565;53.254;10.352;2022-08-07T06:45:17;19.80;1.00
7048;DHT22;3565;53.254;10.352;2022-08-07T06:50:36;17.10;2.70
7048;DHT22;3565;53.254;10.352;2022-08-07T06:53:08;19.40;3.50
7048;DHT22;3565;53.254;10.352;2022-08-07T06:55:39;19.70;1.00
7048;DHT22;3565;53.254;10.352;2022-08-07T06:58:10;20.10;1.00
7048;DHT22;3565;53.254;10.352;2022-08-07T07:00:41;19.90;2.20
7048;DHT22;3565;53.254;10.352;2022-08-07T07:03:13;21.60;1.00
7048;DHT22;3565;53.254;10.352;2022-08-07T07:05:43;21.10;1.00
7048;DHT22;3565;53.254;10.352;2022-08-07T07:08:12;20.90;1.00
7048;DHT22;3565;53.254;10.352;2022-08-07T07:10:42;22.40;1.00
7048;DHT22;3565;53.254;10.352;2022-08-07T07:13:15;22.30;1.00
7048;DHT22;3565;53.254;10.352;2022-08-07T07:15:47;22.90;1.00
7048;DHT22;3565;53.254;10.352;2022-08-07T07:18:20;22.80;1.00
7048;DHT22;3565;53.254;10.352;2022-08-07T07:20:52;22.20;1.00
7048;DHT22;3565;53.254;10.352;2022-08-07T07:23:23;22.50;1.00
7048;DHT22;3565;53.254;10.352;2022-08-07T07:25:55;23.50;1.00
7048;DHT22;3565;53.254;10.352;2022-08-07T07:28:28;23.30;1.00
7048;DHT22;3565;53.254;10.352;2022-08-07T07:31:00;22.10;1.00
7048;DHT22;3565;53.254;10.352;2022-08-07T07:33:31;23.60;1.00
7048;DHT22;3565;53.254;10.352;2022-08-07T07:36:01;25.00;1.00
7048;DHT22;3565;53.254;10.352;2022-08-07T07:38:32;25.00;1.00
7048;DHT22;3565;53.254;10.352;2022-08-07T07:41:07;25.40;1.00
7048;DHT22;3565;53.254;10.352;2022-08-07T07:43:40;24.60;1.00
7048;DHT22;3565;53.254;10.352;2022-08-07T07:46:11;24.10;1.00
7048;DHT22;3565;53.254;10.352;2022-08-07T07:48:42;24.10;1.00
7048;DHT22;3565;53.254;10.352;2022-08-07T07:51:12;24.60;1.00
7048;DHT22;3565;53.254;10.352;2022-08-07T07:53:46;23.50;1.00
7048;DHT22;3565;53.254;10.352;2022-08-07T07:56:16;24.70;1.00
7048;DHT22;3565;53.254;10.352;2022-08-07T07:58:46;24.40;1.00
7048;DHT22;3565;53.254;10.352;2022-08-07T08:01:37;25.70;1.00
7048;DHT22;3565;53.254;10.352;2022-08-07T08:04:09;26.30;1.00
7048;DHT22;3565;53.254;10.352;2022-08-07T08:06:41;26.60;1.00
7048;DHT22;3565;53.254;10.352;2022-08-07T08:09:12;24.90;1.00
7048;DHT22;3565;53.254;10.352;2022-08-07T08:11:43;25.70;1.00
7048;DHT22;3565;53.254;10.352;2022-08-07T08:14:13;26.40;1.00
7048;DHT22;3565;53.254;10.352;2022-08-07T08:16:45;25.70;1.00
7048;DHT22;3565;53.254;10.352;2022-08-07T08:19:16;27.10;1.00
7048;DHT22;3565;53.254;10.352;2022-08-07T08:21:48;25.80;1.00
7048;DHT22;3565;53.254;10.352;2022-08-07T08:24:38;27.10;1.00
7048;DHT22;3565;53.254;10.352;2022-08-07T08:27:27;27.30;1.00
7048;DHT22;3565;53.254;10.352;2022-08-07T08:30:00;26.70;1.00
7048;DHT22;3565;53.254;10.352;2022-08-07T08:32:33;27.60;1.00
7048;DHT22;3565;53.254;10.352;2022-08-07T08:35:03;26.80;1.00
7048;DHT22;3565;53.254;10.352;2022-08-07T08:37:36;27.90;1.00
7048;DHT22;3565;53.254;10.352;2022-08-07T08:40:12;26.90;1.00
7048;DHT22;3565;53.254;10.352;2022-08-07T08:42:44;26.50;1.00
7048;DHT22;3565;53.254;10.352;2022-08-07T08:45:17;25.30;1.00
7048;DHT22;3565;53.254;10.352;2022-08-07T08:47:54;25.30;1.00
7048;DHT22;3565;53.254;10.352;2022-08-07T08:50:26;26.30;1.00
7048;DHT22;3565;53.254;10.352;2022-08-07T08:53:01;27.00;1.00
7048;DHT22;3565;53.254;10.352;2022-08-07T08:55:34;26.90;1.00
7048;DHT22;3565;53.254;10.352;2022-08-07T08:58:07;27.10;1.00
7048;DHT22;3565;53.254;10.352;2022-08-07T09:00:41;26.70;1.00
7048;DHT22;3565;53.254;10.352;2022-08-07T09:03:19;26.30;1.00
7048;DHT22;3565;53.254;10.352;2022-08-07T09:05:52;25.90;1.00
7048;DHT22;3565;53.254;10.352;2022-08-07T09:08:37;26.30;1.00
7048;DHT22;3565;53.254;10.352;2022-08-07T09:11:17;25.20;1.00
7048;DHT22;3565;53.254;10.352;2022-08-07T09:14:00;26.30;1.00
7048;DHT22;3565;53.254;10.352;2022-08-07T09:16:38;27.50;1.00
7048;DHT22;3565;53.254;10.352;2022-08-07T09:19:22;28.00;1.00
7048;DHT22;3565;53.254;10.352;2022-08-07T09:21:58;26.10;1.00
7048;DHT22;3565;53.254;10.352;2022-08-07T09:24:34;26.50;1.00
7048;DHT22;3565;53.254;10.352;2022-08-07T09:27:13;26.60;1.00
7048;DHT22;3565;53.254;10.352;2022-08-07T09:29:44;27.80;1.00
7048;DHT22;3565;53.254;10.352;2022-08-07T09:32:19;28.50;1.00
7048;DHT22;3565;53.254;10.352;2022-08-07T09:34:53;28.70;1.00
7048;DHT22;3565;53.254;10.352;2022-08-07T09:37:27;27.50;1.00
7048;DHT22;3565;53.254;10.352;2022-08-07T09:40:02;28.00;1.00
7048;DHT22;3565;53.254;10.352;2022-08-07T09:42:42;28.80;1.00
7048;DHT22;3565;53.254;10.352;2022-08-07T09:45:14;28.20;1.00
7048;DHT22;3565;53.254;10.352;2022-08-07T09:47:50;28.30;1.00
7048;DHT22;3565;53.254;10.352;2022-08-07T09:50:24;29.50;1.00
7048;DHT22;3565;53.254;10.352;2022-08-07T09:52:57;29.00;1.00
7048;DHT22;3565;53.254;10.352;2022-08-07T09:55:31;27.70;1.00
7048;DHT22;3565;53.254;10.352;2022-08-07T09:58:16;28.10;1.00
7048;DHT22;3565;53.254;10.352;2022-08-07T10:00:53;28.30;1.00
7048;DHT22;3565;53.254;10.352;2022-08-07T10:03:47;25.90;1.00
7048;DHT22;3565;53.254;10.352;2022-08-07T10:06:48;25.70;1.00
7048;DHT22;3565;53.254;10.352;2022-08-07T10:09:28;25.20;1.00
7048;DHT22;3565;53.254;10.352;2022-08-07T10:12:11;24.20;1.00
7048;DHT22;3565;53.254;10.352;2022-08-07T10:14:57;23.60;1.00
7048;DHT22;3565;53.254;10.352;2022-08-07T10:17:38;23.20;1.00
7048;DHT22;3565;53.254;10.352;2022-08-07T10:20:13;22.70;1.00
7048;DHT22;3565;53.254;10.352;2022-08-07T10:22:56;22.80;1.00
7048;DHT22;3565;53.254;10.352;2022-08-07T10:25:37;23.70;1.00
7048;DHT22;3565;53.254;10.352;2022-08-07T10:28:16;23.90;1.00
7048;DHT22;3565;53.254;10.352;2022-08-07T10:30:56;25.10;1.00
7048;DHT22;3565;53.254;10.352;2022-08-07T10:33:38;26.20;1.00
7048;DHT22;3565;53.254;10.352;2022-08-07T10:36:23;26.10;1.00
7048;DHT22;3565;53.254;10.352;2022-08-07T10:38:58;26.40;1.00
7048;DHT22;3565;53.254;10.352;2022-08-07T10:41:30;26.90;1.00
7048;DHT22;3565;53.254;10.352;2022-08-07T10:44:05;27.10;1.00
7048;DHT22;3565;53.254;10.352;2022-08-07T10:46:40;28.40;1.00
7048;DHT22;3565;53.254;10.352;2022-08-07T10:49:13;29.30;1.00
7048;DHT22;3565;53.254;10.352;2022-08-07T10:51:48;30.20;1.00
7048;DHT22;3565;53.254;10.352;2022-08-07T10:54:20;29.50;1.00
7048;DHT22;3565;53.254;10.352;2022-08-07T10:56:55;26.90;1.00
7048;DHT22;3565;53.254;10.352;2022-08-07T10:59:30;25.80;1.00
7048;DHT22;3565;53.254;10.352;2022-08-07T11:02:00;25.80;1.00
7048;DHT22;3565;53.254;10.352;2022-08-07T11:04:39;26.70;1.00
7048;DHT22;3565;53.254;10.352;2022-08-07T11:07:09;26.80;1.00
7048;DHT22;3565;53.254;10.352;2022-08-07T11:09:42;27.60;1.00
7048;DHT22;3565;53.254;10.352;2022-08-07T11:12:15;28.50;1.00
7048;DHT22;3565;53.254;10.352;2022-08-07T11:14:48;28.20;1.00
7048;DHT22;3565;53.254;10.352;2022-08-07T11:17:23;28.00;1.00
7048;DHT22;3565;53.254;10.352;2022-08-07T11:19:54;27.90;1.00
7048;DHT22;3565;53.254;10.352;2022-08-07T11:22:28;28.50;1.00
7048;DHT22;3565;53.254;10.352;2022-08-07T11:25:02;29.10;1.00
7048;DHT22;3565;53.254;10.352;2022-08-07T11:27:37;28.70;1.00
7048;DHT22;3565;53.254;10.352;2022-08-07T11:30:09;27.30;1.00
7048;DHT22;3565;53.254;10.352;2022-08-07T11:32:40;26.40;1.00
7048;DHT22;3565;53.254;10.352;2022-08-07T11:35:15;25.60;1.00
7048;DHT22;3565;53.254;10.352;2022-08-07T11:37:56;25.40;1.00
7048;DHT22;3565;53.254;10.352;2022-08-07T11:43:12;25.60;1.00
7048;DHT22;3565;53.254;10.352;2022-08-07T11:45:52;25.60;1.00
7048;DHT22;3565;53.254;10.352;2022-08-07T11:48:45;26.60;1.00
7048;DHT22;3565;53.254;10.352;2022-08-07T11:51:22;26.10;1.00
7048;DHT22;3565;53.254;10.352;2022-08-07T11:53:56;26.50;1.00
7048;DHT22;3565;53.254;10.352;2022-08-07T11:56:34;27.70;1.00
7048;DHT22;3565;53.254;10.352;2022-08-07T11:59:13;27.60;1.00
7048;DHT22;3565;53.254;10.352;2022-08-07T12:01:47;28.60;1.00
7048;DHT22;3565;53.254;10.352;2022-08-07T12:04:35;28.50;1.00
7048;DHT22;3565;53.254;10.352;2022-08-07T12:07:08;28.70;1.00
7048;DHT22;3565;53.254;10.352;2022-08-07T12:09:41;29.50;1.00
7048;DHT22;3565;53.254;10.352;2022-08-07T12:12:12;29.40;1.00
7048;DHT22;3565;53.254;10.352;2022-08-07T12:14:50;28.50;1.00
7048;DHT22;3565;53.254;10.352;2022-08-07T12:17:19;28.30;1.00
7048;DHT22;3565;53.254;10.352;2022-08-07T12:19:53;27.50;1.00
7048;DHT22;3565;53.254;10.352;2022-08-07T12:22:26;27.60;1.00
7048;DHT22;3565;53.254;10.352;2022-08-07T12:25:00;28.10;1.00
7048;DHT22;3565;53.254;10.352;2022-08-07T12:27:49;28.50;1.00
7048;DHT22;3565;53.254;10.352;2022-08-07T12:30:22;28.70;1.00
7048;DHT22;3565;53.254;10.352;2022-08-07T12:32:57;29.10;1.00
7048;DHT22;3565;53.254;10.352;2022-08-07T12:35:26;29.50;1.00
7048;DHT22;3565;53.254;10.352;2022-08-07T12:37:58;27.60;1.00
7048;DHT22;3565;53.254;10.352;2022-08-07T12:40:29;28.10;1.00
7048;DHT22;3565;53.254;10.352;2022-08-07T12:43:02;28.80;1.00
7048;DHT22;3565;53.254;10.352;2022-08-07T12:45:34;27.30;1.00
7048;DHT22;3565;53.254;10.352;2022-08-07T12:48:06;27.10;1.00
7048;DHT22;3565;53.254;10.352;2022-08-07T12:50:40;27.00;1.00
7048;DHT22;3565;53.254;10.352;2022-08-07T12:53:14;26.60;1.00
7048;DHT22;3565;53.254;10.352;2022-08-07T12:58:25;28.30;1.00
7048;DHT22;3565;53.254;10.352;2022-08-07T13:00:59;27.50;1.00
7048;DHT22;3565;53.254;10.352;2022-08-07T13:03:43;27.50;1.00
7048;DHT22;3565;53.254;10.352;2022-08-07T13:06:20;27.50;1.00
7048;DHT22;3565;53.254;10.352;2022-08-07T13:08:57;26.40;1.00
7048;DHT22;3565;53.254;10.352;2022-08-07T13:11:40;26.40;1.00
7048;DHT22;3565;53.254;10.352;2022-08-07T13:14:14;27.40;1.00
7048;DHT22;3565;53.254;10.352;2022-08-07T13:16:44;28.90;1.00
7048;DHT22;3565;53.254;10.352;2022-08-07T13:19:22;29.20;1.00
7048;DHT22;3565;53.254;10.352;2022-08-07T13:21:53;28.60;1.00
7048;DHT22;3565;53.254;10.352;2022-08-07T13:24:25;29.80;1.00
7048;DHT22;3565;53.254;10.352;2022-08-07T13:27:02;30.40;1.00
7048;DHT22;3565;53.254;10.352;2022-08-07T13:29:35;31.20;1.00
7048;DHT22;3565;53.254;10.352;2022-08-07T13:32:07;31.10;1.00
7048;DHT22;3565;53.254;10.352;2022-08-07T13:34:41;31.00;1.00
7048;DHT22;3565;53.254;10.352;2022-08-07T13:37:14;30.70;1.00
7048;DHT22;3565;53.254;10.352;2022-08-07T13:39:48;30.30;1.00
7048;DHT22;3565;53.254;10.352;2022-08-07T13:42:18;30.50;1.00
7048;DHT22;3565;53.254;10.352;2022-08-07T13:44:49;30.70;1.00
7048;DHT22;3565;53.254;10.352;2022-08-07T13:47:21;30.40;1.00
7048;DHT22;3565;53.254;10.352;2022-08-07T13:52:21;30.00;1.00
7048;DHT22;3565;53.254;10.352;2022-08-07T13:54:51;30.40;1.00
7048;DHT22;3565;53.254;10.352;2022-08-07T13:57:24;28.00;1.00
7048;DHT22;3565;53.254;10.352;2022-08-07T13:59:53;27.00;1.00
7048;DHT22;3565;53.254;10.352;2022-08-07T14:02:27;26.10;1.00
7048;DHT22;3565;53.254;10.352;2022-08-07T14:05:00;26.50;1.00
7048;DHT22;3565;53.254;10.352;2022-08-07T14:07:33;26.40;1.00
7048;DHT22;3565;53.254;10.352;2022-08-07T14:10:03;25.90;1.00
7048;DHT22;3565;53.254;10.352;2022-08-07T14:12:37;25.60;1.00
7048;DHT22;3565;53.254;10.352;2022-08-07T14:15:10;26.00;1.00
7048;DHT22;3565;53.254;10.352;2022-08-07T14:17:41;26.50;1.00
7048;DHT22;3565;53.254;10.352;2022-08-07T14:20:15;26.30;1.00
7048;DHT22;3565;53.254;10.352;2022-08-07T14:22:50;26.30;1.00
7048;DHT22;3565;53.254;10.352;2022-08-07T14:25:23;26.30;1.00
7048;DHT22;3565;53.254;10.352;2022-08-07T14:27:51;26.60;1.00
7048;DHT22;3565;53.254;10.352;2022-08-07T14:30:21;26.60;1.00
7048;DHT22;3565;53.254;10.352;2022-08-07T14:32:54;26.20;1.00
7048;DHT22;3565;53.254;10.352;2022-08-07T14:35:26;25.40;1.00
7048;DHT22;3565;53.254;10.352;2022-08-07T14:37:56;25.40;1.00
7048;DHT22;3565;53.254;10.352;2022-08-07T14:40:27;25.30;1.00
7048;DHT22;3565;53.254;10.352;2022-08-07T14:42:58;25.40;1.00
7048;DHT22;3565;53.254;10.352;2022-08-07T14:45:30;25.60;1.00
7048;DHT22;3565;53.254;10.352;2022-08-07T14:48:01;25.40;1.00
7048;DHT22;3565;53.254;10.352;2022-08-07T14:50:31;26.10;1.00
7048;DHT22;3565;53.254;10.352;2022-08-07T14:53:02;27.10;1.00
7048;DHT22;3565;53.254;10.352;2022-08-07T14:55:34;28.10;1.00
7048;DHT22;3565;53.254;10.352;2022-08-07T14:58:04;27.70;1.00
7048;DHT22;3565;53.254;10.352;2022-08-07T15:00:34;27.60;1.00
7048;DHT22;3565;53.254;10.352;2022-08-07T15:03:07;27.50;1.00
7048;DHT22;3565;53.254;10.352;2022-08-07T15:05:37;28.00;1.00
7048;DHT22;3565;53.254;10.352;2022-08-07T15:08:09;27.50;1.00
7048;DHT22;3565;53.254;10.352;2022-08-07T15:10:40;27.30;1.00
7048;DHT22;3565;53.254;10.352;2022-08-07T15:13:15;26.60;1.00
7048;DHT22;3565;53.254;10.352;2022-08-07T15:15:47;26.60;1.00
7048;DHT22;3565;53.254;10.352;2022-08-07T15:18:21;26.20;1.00
7048;DHT22;3565;53.254;10.352;2022-08-07T15:20:51;26.40;1.00
7048;DHT22;3565;53.254;10.352;2022-08-07T15:23:24;26.50;1.00
7048;DHT22;3565;53.254;10.352;2022-08-07T15:25:55;25.30;1.00
7048;DHT22;3565;53.254;10.352;2022-08-07T15:28:27;24.90;1.00
7048;DHT22;3565;53.254;10.352;2022-08-07T15:31:00;25.70;1.00
7048;DHT22;3565;53.254;10.352;2022-08-07T15:33:31;25.70;1.00
7048;DHT22;3565;53.254;10.352;2022-08-07T15:36:01;26.30;1.00
7048;DHT22;3565;53.254;10.352;2022-08-07T15:38:33;27.40;1.00
7048;DHT22;3565;53.254;10.352;2022-08-07T15:41:08;26.70;1.00
7048;DHT22;3565;53.254;10.352;2022-08-07T15:43:37;26.30;1.00
7048;DHT22;3565;53.254;10.352;2022-08-07T15:46:17;26.40;1.00
7048;DHT22;3565;53.254;10.352;2022-08-07T15:48:48;26.60;1.00
7048;DHT22;3565;53.254;10.352;2022-08-07T15:51:18;26.70;1.00
7048;DHT22;3565;53.254;10.352;2022-08-07T15:53:49;27.20;1.00
7048;DHT22;3565;53.254;10.352;2022-08-07T15:56:21;27.30;1.00
7048;DHT22;3565;53.254;10.352;2022-08-07T15:58:53;27.70;1.00
7048;DHT22;3565;53.254;10.352;2022-08-07T16:01:26;27.50;1.00
7048;DHT22;3565;53.254;10.352;2022-08-07T16:03:57;27.60;1.00
7048;DHT22;3565;53.254;10.352;2022-08-07T16:06:29;28.40;1.00
7048;DHT22;3565;53.254;10.352;2022-08-07T16:09:01;28.20;1.00
7048;DHT22;3565;53.254;10.352;2022-08-07T16:11:42;27.50;1.00
7048;DHT22;3565;53.254;10.352;2022-08-07T16:14:14;27.50;1.00
7048;DHT22;3565;53.254;10.352;2022-08-07T16:16:58;27.50;1.00
7048;DHT22;3565;53.254;10.352;2022-08-07T16:22:46;27.90;1.00
7048;DHT22;3565;53.254;10.352;2022-08-07T16:25:27;27.80;1.00
7048;DHT22;3565;53.254;10.352;2022-08-07T16:28:01;28.00;1.00
7048;DHT22;3565;53.254;10.352;2022-08-07T16:30:31;27.80;1.00
7048;DHT22;3565;53.254;10.352;2022-08-07T16:33:07;26.90;1.00
7048;DHT22;3565;53.254;10.352;2022-08-07T16:35:36;27.20;1.00
7048;DHT22;3565;53.254;10.352;2022-08-07T16:38:18;27.30;1.00
7048;DHT22;3565;53.254;10.352;2022-08-07T16:41:10;26.70;1.00
7048;DHT22;3565;53.254;10.352;2022-08-07T16:47:32;27.70;1.00
7048;DHT22;3565;53.254;10.352;2022-08-07T16:53:31;27.20;1.00
7048;DHT22;3565;53.254;10.352;2022-08-07T16:56:04;27.00;1.00
7048;DHT22;3565;53.254;10.352;2022-08-07T16:58:52;27.70;1.00
7048;DHT22;3565;53.254;10.352;2022-08-07T17:01:26;27.90;1.00
7048;DHT22;3565;53.254;10.352;2022-08-07T17:04:02;27.10;1.00
7048;DHT22;3565;53.254;10.352;2022-08-07T17:06:46;26.50;1.00
7048;DHT22;3565;53.254;10.352;2022-08-07T17:09:16;26.00;1.00
7048;DHT22;3565;53.254;10.352;2022-08-07T17:11:50;26.00;1.00